Knob Noster, Missouri
Current Conditions -  °F | °C
As of 9:58 AM on Sunday 21 Dec 2014 (Local Time) from KSZL Reporting Station
Haze Haze  
Wind Chill: 33°   Ceiling: 600
Heat Index: 41°   Visibility: 6mi
Dew Point: 40°   Wind: 14mph
Humidity: 95%   Direction: 180°S
Pressure: 30.06"   Gusts: NA
Location:  38.77°N, 93.56°W
Report Text: KSZL 211558Z AUTO 18012KT 6SM BR OVC006 05/04 A3006 RMK AO2 UPB1538E1545 SLP187 P0000 T00500042 $
Loading
Personal Weather Stations






























Interactive Weather Map New forecast layout! Learn more

10-Day Weather Forecast

Advertisements
Track Severe Weather on mobile